Ship Status Report: callsign OS8154

sailwx.info

Track history (hours):
 
Tides and Currents Weather Stations Pressure Air Temp Water Temp Dewpoint Dewpoint Depression Visibility Wind Speed Wind Dir Waves Ship Positions

Callsign OS8154 (name unknown)

Last reported at 2015-Jul-04 23:00 UTC. Time now 2015-Jul-05 04:24 UTC.
Position N 68°06' W 053°30'.

Barometer 1021.1 mb
Air temperature 9.8 ° C

Date/timePositionNaut miles runAvg speedWind from/ knotsBaromVisibWave heightAir tempDewpointWater temp
2015-Jul-04 23:00N 68°06' W 053°30'7 3.7 1021.1 9.8
2015-Jul-04 21:00N 68°00' W 053°42'18 9.1 1021.6 8.0
2015-Jul-04 19:00N 67°42' W 053°48'2 2.3 1022.3 8.8
2015-Jul-04 18:00N 67°42' W 053°42'0 0.0 1022.3 12.0
2015-Jul-04 16:00N 67°42' W 053°42'0 0.0 1022.4 11.3
2015-Jul-04 08:00N 67°42' W 053°42'0 0.0 1024.4 5.8
2015-Jul-04 05:00N 67°42' W 053°42'0 0.0 1023.7 5.3
2015-Jul-04 03:00N 67°42' W 053°42'0 0.0 1023.4 4.8
2015-Jul-04 01:00N 67°42' W 053°42'0 0.0 1023.0 6.3
2015-Jul-03 23:00N 67°42' W 053°42'13 4.3 1022.4 9.3
2015-Jul-03 20:00N 67°30' W 053°54'1212.2 1022.7 6.3
2015-Jul-03 19:00N 67°18' W 054°00'6 6.0 1022.7 5.5
2015-Jul-03 18:00N 67°12' W 054°00'12 6.1 1022.6 6.5
2015-Jul-03 16:00N 67°00' W 053°54'8 3.8 1022.6 5.0
2015-Jul-03 14:00N 66°54' W 053°42'0 0.0 1021.9 11.8
2015-Jul-03 13:00N 66°54' W 053°42'0 0.0 1022.0 11.8
2015-Jul-03 09:00N 66°54' W 053°42'0 0.0 1022.3 8.0
2015-Jul-03 05:00N 66°54' W 053°42'0 0.0 1022.6 6.5
2015-Jul-03 02:00N 66°54' W 053°42'0 0.0 1022.8 7.3
2015-Jul-03 01:00N 66°54' W 053°42'0 0.0 1022.3 12.0
2015-Jul-02 23:00N 66°54' W 053°42'0 0.0 1022.0 12.3
2015-Jul-02 22:00N 66°54' W 053°42'0 0.0 1022.2 11.8
2015-Jul-02 20:00N 66°54' W 053°42'0 0.0 1022.3 11.0
2015-Jul-02 16:00N 66°54' W 053°42'0 0.0 1022.5 10.3
2015-Jul-02 15:00N 66°54' W 053°42'0 0.0 1022.4 10.0
2015-Jul-02 12:00N 66°54' W 053°42'0 0.0 1021.6 8.8
2015-Jul-02 10:00N 66°54' W 053°42'0 0.0 1020.6 9.3
2015-Jul-02 05:00N 66°54' W 053°42'0 0.0 1017.4 8.3
2015-Jul-02 01:00N 66°54' W 053°42'0 0.0 1016.3 9.8
2015-Jul-01 22:00N 66°54' W 053°42'18 3.6 1015.6 13.0
2015-Jul-01 17:00N 66°36' W 053°48'1212.2 1015.9 8.0
2015-Jul-01 16:00N 66°24' W 053°54'6 6.0 1016.2 7.5
2015-Jul-01 15:00N 66°18' W 053°54'14 7.0 1016.5 7.3
2015-Jul-01 13:00N 66°06' W 053°36'0 0.0 1017.0 11.8
2015-Jul-01 12:00N 66°06' W 053°36'0 0.0 1017.4 11.0
2015-Jul-01 11:00N 66°06' W 053°36'0 0.0 1017.7 11.3
2015-Jul-01 10:00N 66°06' W 053°36'0 0.0 1017.8 11.5
2015-Jul-01 09:00N 66°06' W 053°36'0 0.0 1018.0 12.3
2015-Jul-01 08:00N 66°06' W 053°36'0 0.0 1018.3 9.8
2015-Jul-01 07:00N 66°06' W 053°36'0 0.0 1018.2 9.8
2015-Jul-01 02:00N 66°06' W 053°36'0 0.0 1018.4 13.5
2015-Jul-01 00:00N 66°06' W 053°36'0 0.0 1018.2 12.8
2015-Jun-30 21:00N 66°06' W 053°36'0 0.0 1017.5 13.5
2015-Jun-30 18:00N 66°06' W 053°36'0 0.0 1017.6 14.3
2015-Jun-30 17:00N 66°06' W 053°36'0 0.0 1017.6 14.3
2015-Jun-30 16:00N 66°06' W 053°36'14 1.0 1017.9 13.3
2015-Jun-30 02:00N 66°12' W 053°06'17 4.3 1016.6 7.8
2015-Jun-29 22:00N 66°24' W 052°36'0 0.0 1015.4 12.0
2015-Jun-29 20:00N 66°24' W 052°36'19 4.7 1015.3 12.8
2015-Jun-29 16:00N 66°36' W 052°00'9 9.3 1014.4 13.3
2015-Jun-29 15:00N 66°42' W 051°42'5 1.2 1014.2 13.8
2015-Jun-29 11:00N 66°42' W 051°30'0 0.0 1015.3 12.3
2015-Jun-29 09:00N 66°42' W 051°30'0 0.0 1015.8 10.0
2015-Jun-29 08:00N 66°42' W 051°30'0 0.0 1015.8 9.8
2015-Jun-29 06:00N 66°42' W 051°30'0 0.0 1015.7 8.5
2015-Jun-28 23:00N 66°42' W 051°30'45 9.0 1013.9 13.5
2015-Jun-28 18:00N 66°12' W 052°54'9 0.9 1013.2 9.3
2015-Jun-28 08:00N 66°06' W 053°12'0 0.0 1011.4 7.0
2015-Jun-28 04:00N 66°06' W 053°12'19 2.7 1011.8 4.0
2015-Jun-27 21:00N 65°48' W 053°24'2 2.5 1012.3 7.8
2015-Jun-27 20:00N 65°48' W 053°18'0 0.0 1012.1 7.8
2015-Jun-27 17:00N 65°48' W 053°18'0 0.0 1012.4 10.0
2015-Jun-27 16:00N 65°48' W 053°18'14 2.7 1012.4 9.0
2015-Jun-27 11:00N 65°54' W 052°48'0 0.0 1012.8 8.8
2015-Jun-27 07:00N 65°54' W 052°48'0 0.0 1012.5 5.8
2015-Jun-27 06:00N 65°54' W 052°48'0 0.0 1012.2 4.8
2015-Jun-26 16:00N 65°54' W 052°48'0 0.0 1012.0 12.3
2015-Jun-26 12:00N 65°54' W 052°48'0 0.0 1012.9 10.3
2015-Jun-26 08:00N 65°54' W 052°48'0 0.0 1013.6 6.8
2015-Jun-26 07:00N 65°54' W 052°48'0 0.0 1013.9 4.8
2015-Jun-26 06:00N 65°54' W 052°48'0 0.0 1013.8 4.8
2015-Jun-26 01:00N 65°54' W 052°48'0 0.0 1015.6 9.5
2015-Jun-26 00:00N 65°54' W 052°48'0 0.0 1016.2 12.0
2015-Jun-25 22:00N 65°54' W 052°48'0 0.0 1016.8 10.0
2015-Jun-25 21:00N 65°54' W 052°48'0 0.0 1016.9 13.3
2015-Jun-25 20:00N 65°54' W 052°48'0 0.0 1016.8 12.5
2015-Jun-25 19:00N 65°54' W 052°48'0 0.0 1017.0 13.3
2015-Jun-25 18:00N 65°54' W 052°48'0 0.0 1017.1 14.0
2015-Jun-25 17:00N 65°54' W 052°48'0 0.0 1017.4
2015-Jun-25 16:00N 65°54' W 052°48'6 3.0 1017.6 11.5
2015-Jun-25 14:00N 66°00' W 052°48'0 0.0 1018.3 10.3
2015-Jun-25 13:00N 66°00' W 052°48'0 0.0 1018.7 10.0
2015-Jun-25 11:00N 66°00' W 052°48'0 0.0 1018.9 9.5
2015-Jun-25 10:00N 66°00' W 052°48'0 0.0 1019.1 8.5
2015-Jun-25 08:00N 66°00' W 052°48'0 0.0 1019.7 6.0
2015-Jun-25 06:00N 66°00' W 052°48'0 0.0 1019.6 6.5
2015-Jun-25 05:00N 66°00' W 052°48'0 0.0 1019.8 6.8
2015-Jun-25 00:00N 66°00' W 052°48'   1021.1 8.8
Track history (hours):
 
Tides and Currents Weather Stations Pressure Air Temp Water Temp Dewpoint Dewpoint Depression Visibility Wind Speed Wind Dir Waves Ship Positions

Callsign OS8154 (name unknown)

Last reported at 2015-Jul-04 23:00 UTC. Time now 2015-Jul-05 04:24 UTC.
Position N 68°06' W 053°30'.

Barometer 1021.1 mb
Air temperature 9.8 ° C

Date/timePositionNaut miles runAvg speedWind from/ knotsBaromVisibWave heightAir tempDewpointWater temp
2015-Jul-04 23:00N 68°06' W 053°30'7 3.7 1021.1 9.8
2015-Jul-04 21:00N 68°00' W 053°42'18 9.1 1021.6 8.0
2015-Jul-04 19:00N 67°42' W 053°48'2 2.3 1022.3 8.8
2015-Jul-04 18:00N 67°42' W 053°42'0 0.0 1022.3 12.0
2015-Jul-04 16:00N 67°42' W 053°42'0 0.0 1022.4 11.3
2015-Jul-04 08:00N 67°42' W 053°42'0 0.0 1024.4 5.8
2015-Jul-04 05:00N 67°42' W 053°42'0 0.0 1023.7 5.3
2015-Jul-04 03:00N 67°42' W 053°42'0 0.0 1023.4 4.8
2015-Jul-04 01:00N 67°42' W 053°42'0 0.0 1023.0 6.3
2015-Jul-03 23:00N 67°42' W 053°42'13 4.3 1022.4 9.3
2015-Jul-03 20:00N 67°30' W 053°54'1212.2 1022.7 6.3
2015-Jul-03 19:00N 67°18' W 054°00'6 6.0 1022.7 5.5
2015-Jul-03 18:00N 67°12' W 054°00'12 6.1 1022.6 6.5
2015-Jul-03 16:00N 67°00' W 053°54'8 3.8 1022.6 5.0
2015-Jul-03 14:00N 66°54' W 053°42'0 0.0 1021.9 11.8
2015-Jul-03 13:00N 66°54' W 053°42'0 0.0 1022.0 11.8
2015-Jul-03 09:00N 66°54' W 053°42'0 0.0 1022.3 8.0
2015-Jul-03 05:00N 66°54' W 053°42'0 0.0 1022.6 6.5
2015-Jul-03 02:00N 66°54' W 053°42'0 0.0 1022.8 7.3
2015-Jul-03 01:00N 66°54' W 053°42'0 0.0 1022.3 12.0
2015-Jul-02 23:00N 66°54' W 053°42'0 0.0 1022.0 12.3
2015-Jul-02 22:00N 66°54' W 053°42'0 0.0 1022.2 11.8
2015-Jul-02 20:00N 66°54' W 053°42'0 0.0 1022.3 11.0
2015-Jul-02 16:00N 66°54' W 053°42'0 0.0 1022.5 10.3
2015-Jul-02 15:00N 66°54' W 053°42'0 0.0 1022.4 10.0
2015-Jul-02 12:00N 66°54' W 053°42'0 0.0 1021.6 8.8
2015-Jul-02 10:00N 66°54' W 053°42'0 0.0 1020.6 9.3
2015-Jul-02 05:00N 66°54' W 053°42'0 0.0 1017.4 8.3
2015-Jul-02 01:00N 66°54' W 053°42'0 0.0 1016.3 9.8
2015-Jul-01 22:00N 66°54' W 053°42'18 3.6 1015.6 13.0
2015-Jul-01 17:00N 66°36' W 053°48'1212.2 1015.9 8.0
2015-Jul-01 16:00N 66°24' W 053°54'6 6.0 1016.2 7.5
2015-Jul-01 15:00N 66°18' W 053°54'14 7.0 1016.5 7.3
2015-Jul-01 13:00N 66°06' W 053°36'0 0.0 1017.0 11.8
2015-Jul-01 12:00N 66°06' W 053°36'0 0.0 1017.4 11.0
2015-Jul-01 11:00N 66°06' W 053°36'0 0.0 1017.7 11.3
2015-Jul-01 10:00N 66°06' W 053°36'0 0.0 1017.8 11.5
2015-Jul-01 09:00N 66°06' W 053°36'0 0.0 1018.0 12.3
2015-Jul-01 08:00N 66°06' W 053°36'0 0.0 1018.3 9.8
2015-Jul-01 07:00N 66°06' W 053°36'0 0.0 1018.2 9.8
2015-Jul-01 02:00N 66°06' W 053°36'0 0.0 1018.4 13.5
2015-Jul-01 00:00N 66°06' W 053°36'0 0.0 1018.2 12.8
2015-Jun-30 21:00N 66°06' W 053°36'0 0.0 1017.5 13.5
2015-Jun-30 18:00N 66°06' W 053°36'0 0.0 1017.6 14.3
2015-Jun-30 17:00N 66°06' W 053°36'0 0.0 1017.6 14.3
2015-Jun-30 16:00N 66°06' W 053°36'14 1.0 1017.9 13.3
2015-Jun-30 02:00N 66°12' W 053°06'17 4.3 1016.6 7.8
2015-Jun-29 22:00N 66°24' W 052°36'0 0.0 1015.4 12.0
2015-Jun-29 20:00N 66°24' W 052°36'19 4.7 1015.3 12.8
2015-Jun-29 16:00N 66°36' W 052°00'9 9.3 1014.4 13.3
2015-Jun-29 15:00N 66°42' W 051°42'5 1.2 1014.2 13.8
2015-Jun-29 11:00N 66°42' W 051°30'0 0.0 1015.3 12.3
2015-Jun-29 09:00N 66°42' W 051°30'0 0.0 1015.8 10.0
2015-Jun-29 08:00N 66°42' W 051°30'0 0.0 1015.8 9.8
2015-Jun-29 06:00N 66°42' W 051°30'0 0.0 1015.7 8.5
2015-Jun-28 23:00N 66°42' W 051°30'45 9.0 1013.9 13.5
2015-Jun-28 18:00N 66°12' W 052°54'9 0.9 1013.2 9.3
2015-Jun-28 08:00N 66°06' W 053°12'0 0.0 1011.4 7.0
2015-Jun-28 04:00N 66°06' W 053°12'19 2.7 1011.8 4.0
2015-Jun-27 21:00N 65°48' W 053°24'2 2.5 1012.3 7.8
2015-Jun-27 20:00N 65°48' W 053°18'0 0.0 1012.1 7.8
2015-Jun-27 17:00N 65°48' W 053°18'0 0.0 1012.4 10.0
2015-Jun-27 16:00N 65°48' W 053°18'14 2.7 1012.4 9.0
2015-Jun-27 11:00N 65°54' W 052°48'0 0.0 1012.8 8.8
2015-Jun-27 07:00N 65°54' W 052°48'0 0.0 1012.5 5.8
2015-Jun-27 06:00N 65°54' W 052°48'0 0.0 1012.2 4.8
2015-Jun-26 16:00N 65°54' W 052°48'0 0.0 1012.0 12.3
2015-Jun-26 12:00N 65°54' W 052°48'0 0.0 1012.9 10.3
2015-Jun-26 08:00N 65°54' W 052°48'0 0.0 1013.6 6.8
2015-Jun-26 07:00N 65°54' W 052°48'0 0.0 1013.9 4.8
2015-Jun-26 06:00N 65°54' W 052°48'0 0.0 1013.8 4.8
2015-Jun-26 01:00N 65°54' W 052°48'0 0.0 1015.6 9.5
2015-Jun-26 00:00N 65°54' W 052°48'0 0.0 1016.2 12.0
2015-Jun-25 22:00N 65°54' W 052°48'0 0.0 1016.8 10.0
2015-Jun-25 21:00N 65°54' W 052°48'0 0.0 1016.9 13.3
2015-Jun-25 20:00N 65°54' W 052°48'0 0.0 1016.8 12.5
2015-Jun-25 19:00N 65°54' W 052°48'0 0.0 1017.0 13.3
2015-Jun-25 18:00N 65°54' W 052°48'0 0.0 1017.1 14.0
2015-Jun-25 17:00N 65°54' W 052°48'0 0.0 1017.4
2015-Jun-25 16:00N 65°54' W 052°48'6 3.0 1017.6 11.5
2015-Jun-25 14:00N 66°00' W 052°48'0 0.0 1018.3 10.3
2015-Jun-25 13:00N 66°00' W 052°48'0 0.0 1018.7 10.0
2015-Jun-25 11:00N 66°00' W 052°48'0 0.0 1018.9 9.5
2015-Jun-25 10:00N 66°00' W 052°48'0 0.0 1019.1 8.5
2015-Jun-25 08:00N 66°00' W 052°48'0 0.0 1019.7 6.0
2015-Jun-25 06:00N 66°00' W 052°48'0 0.0 1019.6 6.5
2015-Jun-25 05:00N 66°00' W 052°48'0 0.0 1019.8 6.8
2015-Jun-25 00:00N 66°00' W 052°48'   1021.1 8.8

Dump ship's entire track history